Time;durP1;ratioP1;P1;durP2;ratioP2;P2;SDS_P1;SDS_P2;PMS_P1;PMS_P2;Temp;Humidity;BMP_temperature;BMP_pressure;BME280_temperature;BME280_humidity;BME280_pressure;Samples;Min_cycle;Max_cycle;Signal;HPM_P1;HPM_P2
2022/10/03 00:01:42;;;;;;;8.85;1.73;;;12.10;99.90;;;;;;5061101;28;20228;-64
2022/10/03 00:04:24;;;;;;;6.95;1.85;;;12.10;99.90;;;;;;5044487;28;20918;-64
2022/10/03 00:07:03;;;;;;;9.82;1.70;;;12.10;99.90;;;;;;5046783;28;20216;-64
2022/10/03 00:09:46;;;;;;;6.70;1.63;;;12.00;99.90;;;;;;5066603;28;20563;-64
2022/10/03 00:12:21;;;;;;;8.05;1.80;;;12.00;99.90;;;;;;5034861;28;20213;-64
2022/10/03 00:14:59;;;;;;;8.27;1.40;;;12.20;99.90;;;;;;5037481;28;20220;-64
2022/10/03 00:17:37;;;;;;;9.27;1.92;;;12.00;99.90;;;;;;5060997;28;20205;-64
2022/10/03 00:20:16;;;;;;;4.72;1.48;;;12.00;99.90;;;;;;5046461;28;20211;-64
2022/10/03 00:22:51;;;;;;;5.38;1.67;;;12.00;99.90;;;;;;5065610;28;20200;-64
2022/10/03 00:25:28;;;;;;;7.57;1.60;;;12.00;99.90;;;;;;5066815;28;20203;-64
2022/10/03 00:28:12;;;;;;;10.82;1.23;;;12.00;99.90;;;;;;5033799;28;20228;-64
2022/10/03 00:30:56;;;;;;;7.78;1.27;;;12.00;99.90;;;;;;5051758;28;20197;-64
2022/10/03 00:33:29;;;;;;;13.80;1.98;;;12.00;99.90;;;;;;5055577;28;20196;-64
2022/10/03 00:36:04;;;;;;;8.85;1.50;;;12.10;99.90;;;;;;5039600;28;20205;-64
2022/10/03 00:38:57;;;;;;;3.55;1.48;;;12.00;99.90;;;;;;5068003;28;20215;-64
2022/10/03 00:41:59;;;;;;;6.13;1.45;;;12.10;99.90;;;;;;5043757;28;20201;-64
2022/10/03 00:44:51;;;;;;;10.40;1.80;;;12.20;99.90;;;;;;5042098;28;20212;-64
2022/10/03 00:47:46;;;;;;;10.40;1.63;;;14.30;99.90;;;;;;5057832;28;20236;-64
2022/10/03 00:50:51;;;;;;;12.73;1.80;;;12.30;99.90;;;;;;5005883;28;20204;-64
2022/10/03 00:53:46;;;;;;;7.03;1.65;;;12.40;99.90;;;;;;5068005;28;20199;-64
2022/10/03 00:56:28;;;;;;;8.38;1.92;;;12.40;99.90;;;;;;5057418;28;20783;-64
2022/10/03 00:59:14;;;;;;;7.25;1.92;;;12.20;99.90;;;;;;5036577;28;21054;-64
2022/10/03 01:01:45;;;;;;;5.13;1.38;;;12.40;99.90;;;;;;5061354;28;20732;-64
2022/10/03 01:04:39;;;;;;;8.18;1.40;;;12.40;99.90;;;;;;5065770;28;20200;-64
2022/10/03 01:07:23;;;;;;;7.32;1.88;;;12.50;99.90;;;;;;5059617;28;20220;-63
2022/10/03 01:10:08;;;;;;;5.78;1.67;;;12.50;99.90;;;;;;5065129;28;20297;-64
2022/10/03 01:13:12;;;;;;;8.23;1.20;;;12.50;99.90;;;;;;5069766;28;20313;-64
2022/10/03 01:15:49;;;;;;;8.82;1.35;;;12.50;99.90;;;;;;5037732;28;20204;-64
2022/10/03 01:18:30;;;;;;;8.57;1.73;;;12.50;99.90;;;;;;5051902;28;20195;-65
2022/10/03 01:21:05;;;;;;;11.20;2.25;;;12.50;99.90;;;;;;5053620;28;20204;-65
2022/10/03 01:23:56;;;;;;;10.52;2.20;;;12.50;99.90;;;;;;5064418;28;20204;-64
2022/10/03 01:26:56;;;;;;;10.55;1.42;;;12.50;99.90;;;;;;5022341;28;20920;-64
2022/10/03 01:32:43;;;;;;;8.25;1.40;;;12.60;99.90;;;;;;5017543;28;20209;-64
2022/10/03 01:35:21;;;;;;;9.18;1.60;;;12.60;99.90;;;;;;5057887;28;20200;-64
2022/10/03 01:37:57;;;;;;;11.00;1.98;;;12.60;99.90;;;;;;5057816;28;20207;-63
2022/10/03 01:40:29;;;;;;;9.10;2.05;;;12.60;99.90;;;;;;5059091;28;20208;-64
2022/10/03 01:43:05;;;;;;;5.72;1.35;;;12.70;99.90;;;;;;5054635;28;20278;-64
2022/10/03 01:45:46;;;;;;;8.80;1.40;;;12.70;99.90;;;;;;5029982;28;20222;-65
2022/10/03 01:48:21;;;;;;;8.80;1.70;;;12.70;99.90;;;;;;5049942;28;20228;-64
2022/10/03 01:50:56;;;;;;;8.38;1.70;;;12.80;99.90;;;;;;5062571;28;20211;-65
2022/10/03 01:53:30;;;;;;;8.27;1.30;;;12.80;99.90;;;;;;5049935;28;20628;-64
2022/10/03 01:56:03;;;;;;;7.50;1.10;;;12.60;99.90;;;;;;5065236;28;20195;-64
2022/10/03 01:58:41;;;;;;;7.38;1.70;;;12.50;99.90;;;;;;5060222;28;20687;-64
2022/10/03 02:01:14;;;;;;;8.77;1.60;;;12.50;99.90;;;;;;5036872;28;20235;-64
2022/10/03 02:03:49;;;;;;;4.63;1.27;;;12.50;99.90;;;;;;5053782;28;20200;-64
2022/10/03 02:06:21;;;;;;;9.85;1.52;;;12.50;99.90;;;;;;5064814;28;20744;-64
2022/10/03 02:08:56;;;;;;;3.65;0.82;;;12.60;99.90;;;;;;5054360;28;20235;-65
2022/10/03 02:11:31;;;;;;;7.03;1.73;;;12.60;99.90;;;;;;5061869;28;20215;-64
2022/10/03 02:14:07;;;;;;;13.20;1.65;;;12.60;99.90;;;;;;5068717;28;20211;-64
2022/10/03 02:16:43;;;;;;;12.52;1.88;;;12.70;99.90;;;;;;5030511;28;20848;-64
2022/10/03 02:19:20;;;;;;;4.10;1.67;;;12.60;99.90;;;;;;5048986;28;20678;-64
2022/10/03 02:21:48;;;;;;;5.07;1.63;;;12.60;99.90;;;;;;5067769;28;20228;-64
2022/10/03 02:24:31;;;;;;;5.45;1.20;;;12.60;99.90;;;;;;5053869;28;20212;-64
2022/10/03 02:27:33;;;;;;;3.88;1.40;;;12.60;99.90;;;;;;5067390;28;20200;-64
2022/10/03 02:30:18;;;;;;;8.13;1.60;;;12.60;99.90;;;;;;5065054;28;20219;-64
2022/10/03 02:33:33;;;;;;;6.63;1.52;;;12.50;99.90;;;;;;5026831;28;20207;-64
2022/10/03 02:36:30;;;;;;;5.00;1.02;;;12.50;99.90;;;;;;5051851;28;20200;-64
2022/10/03 02:39:19;;;;;;;7.40;1.67;;;12.40;99.90;;;;;;5055330;28;20295;-64
2022/10/03 02:42:24;;;;;;;11.27;1.73;;;12.30;99.90;;;;;;5054159;28;20224;-64
2022/10/03 02:45:24;;;;;;;3.70;1.48;;;12.30;99.90;;;;;;5069788;28;20215;-64
2022/10/03 02:48:35;;;;;;;5.18;0.95;;;10.80;99.90;;;;;;5027791;28;20235;-64
2022/10/03 02:51:41;;;;;;;6.10;1.30;;;12.20;99.90;;;;;;5050810;28;20217;-64
2022/10/03 02:54:38;;;;;;;8.18;1.90;;;12.00;99.90;;;;;;5053136;28;20215;-64
2022/10/03 02:57:36;;;;;;;10.73;1.67;;;12.10;99.90;;;;;;5065375;28;20298;-64
2022/10/03 03:00:17;;;;;;;3.92;1.17;;;12.00;99.90;;;;;;5065281;28;20219;-64
2022/10/03 03:03:37;;;;;;;6.40;1.73;;;12.00;99.90;;;;;;5041039;28;20657;-64
2022/10/03 03:06:43;;;;;;;4.95;1.50;;;12.00;99.90;;;;;;5046360;28;20216;-64
2022/10/03 03:09:35;;;;;;;5.60;1.33;;;12.00;99.90;;;;;;5068197;28;20223;-65
2022/10/03 03:12:34;;;;;;;6.05;1.40;;;12.00;99.90;;;;;;5056840;28;20196;-64
2022/10/03 03:15:38;;;;;;;5.25;1.17;;;12.00;99.90;;;;;;5062735;28;20246;-64
2022/10/03 03:18:12;;;;;;;7.05;1.15;;;12.00;99.90;;;;;;5061771;28;20203;-64
2022/10/03 03:20:52;;;;;;;7.97;1.15;;;11.90;99.90;;;;;;5023514;28;20220;-64
2022/10/03 03:23:51;;;;;;;7.25;1.52;;;11.90;99.90;;;;;;5048585;28;20207;-64
2022/10/03 03:26:32;;;;;;;3.67;1.05;;;11.90;99.90;;;;;;5049618;28;20593;-64
2022/10/03 03:29:09;;;;;;;2.75;1.30;;;11.80;99.90;;;;;;5063569;28;20232;-65
2022/10/03 03:31:45;;;;;;;4.05;1.05;;;11.80;99.90;;;;;;5065451;28;20204;-64
2022/10/03 03:34:18;;;;;;;13.93;1.58;;;11.80;99.90;;;;;;5045968;28;20689;-64
2022/10/03 03:36:54;;;;;;;6.35;1.50;;;12.00;99.90;;;;;;5033816;28;20224;-64
2022/10/03 03:39:35;;;;;;;5.57;1.25;;;12.00;99.90;;;;;;5061898;28;20239;-64
2022/10/03 03:42:22;;;;;;;10.25;1.13;;;12.00;99.90;;;;;;5052678;28;20208;-64
2022/10/03 03:45:14;;;;;;;10.27;1.10;;;12.40;99.90;;;;;;5067569;28;20203;-65
2022/10/03 03:48:17;;;;;;;7.80;1.55;;;12.10;99.90;;;;;;5069220;28;20227;-64
2022/10/03 03:50:57;;;;;;;6.65;1.00;;;12.20;99.90;;;;;;5054929;28;20201;-63
2022/10/03 03:53:52;;;;;;;5.68;1.38;;;12.30;99.90;;;;;;5048898;28;21097;-64
2022/10/03 03:56:42;;;;;;;5.45;1.08;;;12.30;99.90;;;;;;5061528;28;20947;-65
2022/10/03 03:59:20;;;;;;;3.55;0.95;;;12.30;99.90;;;;;;5049636;28;20632;-65
2022/10/03 04:02:05;;;;;;;7.25;1.30;;;12.30;99.90;;;;;;5062596;28;20644;-64
2022/10/03 04:04:45;;;;;;;7.63;1.20;;;12.20;99.90;;;;;;5051141;28;20215;-64
2022/10/03 04:07:26;;;;;;;7.63;1.08;;;12.20;99.90;;;;;;5026995;28;20219;-64
2022/10/03 04:10:13;;;;;;;7.07;1.58;;;12.20;99.90;;;;;;5055085;28;20209;-63
2022/10/03 04:13:11;;;;;;;5.50;1.33;;;12.10;99.90;;;;;;5048520;28;20336;-64
2022/10/03 04:15:49;;;;;;;4.25;0.98;;;12.10;99.90;;;;;;5066115;28;20216;-64
2022/10/03 04:18:57;;;;;;;4.25;1.20;;;12.00;99.90;;;;;;5068905;28;20220;-64
2022/10/03 04:21:49;;;;;;;8.27;1.55;;;12.00;99.90;;;;;;5026968;28;20598;-64
2022/10/03 04:24:59;;;;;;;2.58;1.23;;;11.90;99.90;;;;;;5067589;28;20220;-64
2022/10/03 04:27:52;;;;;;;8.65;1.30;;;11.90;99.90;;;;;;5005222;28;20224;-64
2022/10/03 04:30:22;;;;;;;4.63;1.20;;;11.90;99.90;;;;;;5065606;28;20197;-64
2022/10/03 04:33:17;;;;;;;8.38;1.52;;;11.90;99.90;;;;;;5071534;28;20196;-64
2022/10/03 04:36:15;;;;;;;4.00;1.52;;;11.80;99.90;;;;;;5064844;28;20200;-64
2022/10/03 04:38:51;;;;;;;11.00;1.38;;;11.90;99.90;;;;;;5042239;28;20207;-64
2022/10/03 04:41:27;;;;;;;12.57;1.88;;;11.90;99.90;;;;;;5065079;28;20200;-64
2022/10/03 04:44:02;;;;;;;7.53;1.65;;;11.90;99.90;;;;;;5057402;28;20246;-64
2022/10/03 04:46:38;;;;;;;9.18;2.13;;;12.10;99.90;;;;;;5067875;28;20204;-64
2022/10/03 04:49:13;;;;;;;9.00;1.42;;;11.90;99.90;;;;;;5068047;28;20277;-65
2022/10/03 04:51:53;;;;;;;4.50;1.15;;;11.90;99.90;;;;;;5064333;28;20684;-64
2022/10/03 04:54:28;;;;;;;3.85;1.20;;;11.80;99.90;;;;;;5042998;28;20208;-64
2022/10/03 04:57:02;;;;;;;4.00;1.20;;;11.80;99.90;;;;;;5059779;28;20207;-64
2022/10/03 04:59:48;;;;;;;7.47;1.27;;;11.70;99.90;;;;;;5057770;28;20215;-64
2022/10/03 05:02:39;;;;;;;9.60;1.40;;;11.70;99.90;;;;;;5051411;28;20228;-65
2022/10/03 05:05:40;;;;;;;11.07;1.77;;;11.70;99.90;;;;;;5064305;28;20219;-64
2022/10/03 05:08:19;;;;;;;5.07;1.20;;;11.70;99.90;;;;;;5035792;28;20242;-64
2022/10/03 05:11:04;;;;;;;6.55;1.60;;;11.70;99.90;;;;;;5067322;28;20737;-64
2022/10/03 05:13:39;;;;;;;5.65;1.63;;;11.70;99.90;;;;;;5063181;28;20716;-65
2022/10/03 05:16:18;;;;;;;7.47;1.42;;;11.70;99.90;;;;;;5056580;28;20204;-64
2022/10/03 05:18:53;;;;;;;6.75;1.10;;;11.70;99.90;;;;;;5074685;28;20204;-64
2022/10/03 05:21:31;;;;;;;11.10;1.73;;;11.70;99.90;;;;;;5057319;28;20203;-64
2022/10/03 05:24:06;;;;;;;6.68;1.83;;;11.70;99.90;;;;;;5036997;28;20251;-63
2022/10/03 05:26:44;;;;;;;6.47;1.58;;;12.30;99.90;;;;;;5059160;28;20207;-64
2022/10/03 05:29:20;;;;;;;8.18;1.48;;;11.70;99.90;;;;;;5065270;28;20324;-64
2022/10/03 05:32:02;;;;;;;9.52;1.63;;;11.70;99.90;;;;;;5050996;28;20203;-64
2022/10/03 05:34:40;;;;;;;7.50;1.52;;;11.70;99.90;;;;;;5050237;28;20996;-64
2022/10/03 05:37:29;;;;;;;6.80;1.30;;;11.60;99.90;;;;;;5048685;28;20209;-64
2022/10/03 05:40:01;;;;;;;5.78;1.13;;;11.60;99.90;;;;;;5036383;28;20251;-63
2022/10/03 05:42:39;;;;;;;9.48;1.42;;;11.70;99.90;;;;;;5069384;28;20223;-64
2022/10/03 05:45:23;;;;;;;6.30;1.50;;;11.70;99.90;;;;;;5064713;28;20191;-65
2022/10/03 05:47:56;;;;;;;13.27;2.22;;;11.60;99.90;;;;;;5052820;28;20203;-64
2022/10/03 05:50:42;;;;;;;15.63;2.20;;;11.90;99.90;;;;;;5063366;28;20193;-64
2022/10/03 05:53:32;;;;;;;11.05;1.92;;;12.00;99.90;;;;;;5039431;28;20204;-65
2022/10/03 05:56:09;;;;;;;3.90;0.90;;;11.90;99.90;;;;;;5033245;28;20212;-65
2022/10/03 05:59:16;;;;;;;9.32;1.55;;;12.10;99.90;;;;;;5063273;28;20253;-65
2022/10/03 06:02:09;;;;;;;8.38;1.67;;;12.10;99.90;;;;;;5027530;28;20237;-63
2022/10/03 06:05:11;;;;;;;9.48;1.67;;;12.10;99.90;;;;;;5035881;28;20220;-63
2022/10/03 06:07:51;;;;;;;7.90;1.48;;;12.10;99.90;;;;;;4989489;28;20231;-65
2022/10/03 06:10:38;;;;;;;5.97;1.40;;;12.20;99.90;;;;;;5017085;28;20232;-65
2022/10/03 06:13:21;;;;;;;5.53;1.15;;;12.20;99.90;;;;;;5009211;28;20228;-64
2022/10/03 06:15:58;;;;;;;7.43;1.30;;;12.10;99.90;;;;;;5036021;28;20227;-64
2022/10/03 06:18:57;;;;;;;3.85;1.45;;;12.10;99.90;;;;;;5009899;28;20251;-64
2022/10/03 06:22:06;;;;;;;6.35;1.27;;;11.90;99.90;;;;;;5043913;28;20682;-65
2022/10/03 06:27:56;;;;;;;6.70;1.35;;;12.10;99.90;;;;;;4996398;23;20384;-65
2022/10/03 06:30:37;;;;;;;9.00;1.23;;;12.20;99.90;;;;;;5017513;28;20335;-65
2022/10/03 06:33:48;;;;;;;6.10;1.25;;;12.30;99.90;;;;;;5008135;28;20224;-65
2022/10/03 06:39:58;;;;;;;10.93;1.73;;;12.30;99.90;;;;;;5008152;23;24541;-64
2022/10/03 06:42:52;;;;;;;9.65;1.50;;;15.40;99.90;;;;;;4954598;28;20689;-65
2022/10/03 06:46:02;;;;;;;6.13;1.38;;;12.40;99.90;;;;;;5004708;23;20206;-65
2022/10/03 06:49:18;;;;;;;7.80;1.17;;;12.40;99.90;;;;;;5035822;28;20232;-64
2022/10/03 06:52:20;;;;;;;5.70;1.50;;;12.60;99.90;;;;;;5057758;28;20225;-64
2022/10/03 06:55:30;;;;;;;7.05;1.40;;;12.60;99.90;;;;;;5044192;28;20203;-65
2022/10/03 06:58:30;;;;;;;8.45;1.30;;;12.70;99.90;;;;;;5032125;28;20224;-64
2022/10/03 07:01:14;;;;;;;3.70;1.45;;;12.80;99.90;;;;;;5019265;28;20743;-65
2022/10/03 07:04:08;;;;;;;9.65;1.55;;;12.80;99.90;;;;;;5042728;28;20238;-64
2022/10/03 07:07:12;;;;;;;4.68;1.38;;;13.10;99.90;;;;;;5034314;28;21013;-65
2022/10/03 07:10:09;;;;;;;13.45;1.88;;;12.90;99.90;;;;;;5050453;28;20223;-64
2022/10/03 07:13:11;;;;;;;8.10;1.52;;;13.00;99.90;;;;;;5008316;28;20227;-65
2022/10/03 07:16:17;;;;;;;9.75;2.00;;;13.00;99.90;;;;;;5043649;28;20406;-65
2022/10/03 07:19:16;;;;;;;7.35;1.77;;;13.30;99.90;;;;;;5041452;28;20232;-65
2022/10/03 07:22:22;;;;;;;10.95;1.60;;;13.10;99.90;;;;;;5032783;28;20223;-65
2022/10/03 07:25:23;;;;;;;4.88;1.52;;;13.20;99.90;;;;;;5047864;28;20968;-65
2022/10/03 07:28:15;;;;;;;5.97;1.45;;;13.30;99.90;;;;;;5046721;28;20311;-65
2022/10/03 07:31:02;;;;;;;12.30;1.60;;;14.40;99.90;;;;;;5038501;28;20842;-65
2022/10/03 07:33:43;;;;;;;7.80;1.50;;;;;;;;;;5039462;28;20198;-65
2022/10/03 07:40:00;;;;;;;11.32;1.60;;;13.50;99.90;;;;;;5049946;28;20303;-65
2022/10/03 07:42:54;;;;;;;9.30;1.95;;;13.50;99.90;;;;;;5035517;28;20739;-64
2022/10/03 07:45:40;;;;;;;7.88;1.25;;;13.50;99.90;;;;;;5023324;28;20223;-64
2022/10/03 07:48:41;;;;;;;8.35;1.63;;;13.30;99.90;;;;;;5049310;28;20226;-65
2022/10/03 07:51:14;;;;;;;4.45;1.20;;;13.50;99.90;;;;;;5026388;28;20228;-65
2022/10/03 07:54:19;;;;;;;17.73;1.65;;;13.50;99.90;;;;;;5039904;28;20647;-64
2022/10/03 07:57:12;;;;;;;14.35;2.10;;;13.80;99.90;;;;;;5040789;28;20239;-65
2022/10/03 08:00:04;;;;;;;8.80;1.20;;;13.60;99.90;;;;;;5019706;28;20314;-64
2022/10/03 08:03:26;;;;;;;8.07;1.67;;;13.80;99.90;;;;;;5066581;28;20219;-65
2022/10/03 08:06:22;;;;;;;11.40;1.52;;;13.70;99.90;;;;;;5063334;28;20193;-65
2022/10/03 08:09:28;;;;;;;7.35;1.40;;;14.10;99.90;;;;;;5057896;28;20289;-65
2022/10/03 08:12:33;;;;;;;7.88;2.30;;;14.00;99.90;;;;;;5064701;28;20223;-65
2022/10/03 08:15:09;;;;;;;13.98;1.90;;;13.90;99.90;;;;;;5023639;28;20219;-65
2022/10/03 08:18:00;;;;;;;9.23;2.72;;;14.00;99.90;;;;;;5067938;28;20220;-65
2022/10/03 08:20:51;;;;;;;7.65;1.70;;;14.00;99.90;;;;;;5065101;28;20302;-64
2022/10/03 08:23:45;;;;;;;6.47;1.33;;;13.90;99.90;;;;;;5041470;28;21627;-65
2022/10/03 08:26:20;;;;;;;9.57;1.15;;;14.30;99.90;;;;;;5058182;28;20223;-65
2022/10/03 08:29:09;;;;;;;5.40;1.98;;;14.60;99.90;;;;;;5048252;28;20595;-65
2022/10/03 08:31:59;;;;;;;6.30;1.40;;;14.60;99.90;;;;;;5051917;28;20216;-65
2022/10/03 08:34:49;;;;;;;9.52;1.70;;;14.70;99.90;;;;;;5052400;28;21009;-65
2022/10/03 08:38:10;;;;;;;7.28;1.65;;;14.80;99.90;;;;;;5061271;28;22192;-66
2022/10/03 08:41:07;;;;;;;6.47;1.60;;;14.90;99.90;;;;;;5061094;28;20235;-65
2022/10/03 08:44:14;;;;;;;8.25;1.70;;;14.90;99.90;;;;;;5049502;28;20220;-65
2022/10/03 08:47:12;;;;;;;10.45;1.50;;;15.00;99.90;;;;;;5039766;28;20940;-65
2022/10/03 08:50:14;;;;;;;5.55;1.85;;;15.10;99.90;;;;;;5054419;28;20276;-65
2022/10/03 08:52:59;;;;;;;4.88;1.35;;;15.10;99.90;;;;;;5065317;28;20216;-65
2022/10/03 08:55:46;;;;;;;7.15;1.48;;;15.00;99.90;;;;;;5053145;28;20571;-65
2022/10/03 08:58:59;;;;;;;10.75;1.80;;;15.00;99.90;;;;;;5041473;28;20665;-65
2022/10/03 09:01:40;;;;;;;8.35;2.00;;;15.00;99.90;;;;;;5029155;28;20236;-65
2022/10/03 09:04:43;;;;;;;11.02;1.42;;;15.10;99.90;;;;;;5049741;28;20224;-65
2022/10/03 09:07:28;;;;;;;10.27;1.73;;;15.10;99.90;;;;;;5064273;28;20323;-65
2022/10/03 09:10:34;;;;;;;5.53;1.20;;;15.00;99.90;;;;;;5058792;23;20236;-65
2022/10/03 09:13:22;;;;;;;9.90;1.63;;;;;;;;;;5045250;28;20235;-65
2022/10/03 09:16:34;;;;;;;9.18;1.33;;;15.20;99.90;;;;;;5033928;28;20241;-65
2022/10/03 09:19:40;;;;;;;6.97;1.05;;;15.20;99.90;;;;;;5034424;28;20200;-64
2022/10/03 09:22:26;;;;;;;3.38;1.17;;;15.20;99.90;;;;;;5004593;28;20220;-66
2022/10/03 09:25:24;;;;;;;6.45;1.55;;;15.20;99.90;;;;;;5036790;28;20231;-65
2022/10/03 09:28:32;;;;;;;4.75;1.25;;;15.20;99.90;;;;;;5049670;28;20224;-65
2022/10/03 09:31:16;;;;;;;7.28;1.60;;;15.40;99.90;;;;;;5035251;28;20224;-65
2022/10/03 09:34:07;;;;;;;4.78;1.42;;;15.70;99.90;;;;;;5030616;28;20319;-64
2022/10/03 09:37:08;;;;;;;3.58;1.20;;;15.30;99.90;;;;;;5035690;28;20240;-64
2022/10/03 09:39:49;;;;;;;5.88;1.20;;;;;;;;;;5028162;28;20233;-65
2022/10/03 09:43:01;;;;;;;6.20;1.25;;;15.60;99.90;;;;;;5029022;28;20221;-64
2022/10/03 09:46:13;;;;;;;8.27;1.55;;;15.60;99.90;;;;;;5036454;28;20208;-65
2022/10/03 09:49:20;;;;;;;7.22;1.50;;;15.50;99.90;;;;;;5019128;28;20228;-65
2022/10/03 09:51:58;;;;;;;8.50;1.52;;;15.70;99.90;;;;;;5018004;28;20235;-65
2022/10/03 09:54:51;;;;;;;4.78;1.45;;;15.80;99.90;;;;;;5050021;28;20220;-64
2022/10/03 09:57:54;;;;;;;5.00;1.45;;;15.70;99.90;;;;;;5038527;28;20233;-65
2022/10/03 10:00:23;;;;;;;6.55;1.60;;;15.80;99.90;;;;;;5027592;28;20216;-64
2022/10/03 10:03:37;;;;;;;5.63;1.33;;;15.70;99.90;;;;;;5020588;28;20209;-65
2022/10/03 10:06:22;;;;;;;6.57;1.30;;;15.70;99.90;;;;;;5047157;28;20684;-64
2022/10/03 10:09:40;;;;;;;5.55;1.40;;;15.80;99.90;;;;;;5034403;28;20205;-64
2022/10/03 10:12:32;;;;;;;9.35;2.65;;;15.80;99.90;;;;;;5035502;28;20207;-64
2022/10/03 10:15:26;;;;;;;5.10;1.38;;;15.70;99.90;;;;;;5045305;28;20201;-64
2022/10/03 10:18:26;;;;;;;14.23;1.33;;;16.00;99.90;;;;;;5035941;28;21551;-64
2022/10/03 10:21:39;;;;;;;4.25;0.77;;;16.10;99.90;;;;;;5020633;28;20639;-64
2022/10/03 10:24:20;;;;;;;6.00;1.15;;;;;;;;;;5035484;28;20669;-64
2022/10/03 10:27:14;;;;;;;4.28;1.52;;;16.20;99.90;;;;;;5036421;28;20258;-65
2022/10/03 10:30:09;;;;;;;5.93;1.38;;;16.30;99.90;;;;;;5002590;28;20773;-64
2022/10/03 10:33:05;;;;;;;2.22;0.85;;;16.40;99.90;;;;;;5039080;28;20201;-64
2022/10/03 10:36:24;;;;;;;6.95;1.00;;;16.50;99.90;;;;;;4976531;28;20667;-64
2022/10/03 10:39:23;;;;;;;9.23;1.23;;;16.40;99.90;;;;;;5033022;28;20234;-64
2022/10/03 10:42:31;;;;;;;3.20;1.10;;;16.10;99.90;;;;;;5026155;28;20233;-64
2022/10/03 10:45:38;;;;;;;5.28;1.58;;;16.10;99.90;;;;;;5003543;28;20218;-64
2022/10/03 10:48:35;;;;;;;10.43;1.38;;;16.20;99.90;;;;;;5018573;28;20374;-64
2022/10/03 10:51:40;;;;;;;2.20;1.00;;;16.00;99.90;;;;;;5013789;28;20975;-64
2022/10/03 10:55:22;;;;;;;6.25;0.93;;;16.30;99.90;;;;;;5014986;28;20212;-64
2022/10/03 10:58:30;;;;;;;4.05;0.88;;;16.30;99.90;;;;;;5028467;28;20201;-64
2022/10/03 11:01:28;;;;;;;5.80;0.93;;;16.40;99.90;;;;;;5047717;28;20230;-64
2022/10/03 11:04:20;;;;;;;3.47;1.10;;;16.70;99.90;;;;;;5027101;28;20706;-64
2022/10/03 11:07:26;;;;;;;1.92;1.00;;;16.40;99.90;;;;;;5008424;28;20209;-64
2022/10/03 11:10:21;;;;;;;2.55;0.95;;;16.60;99.90;;;;;;5022484;28;20225;-65
2022/10/03 11:13:32;;;;;;;1.58;0.82;;;16.70;99.90;;;;;;5041445;28;20219;-64
2022/10/03 11:16:36;;;;;;;4.03;0.93;;;16.90;99.90;;;;;;5016139;28;20681;-63
2022/10/03 11:19:28;;;;;;;4.18;0.80;;;16.50;99.90;;;;;;5024664;28;20302;-64
2022/10/03 11:22:36;;;;;;;5.05;1.10;;;16.30;99.90;;;;;;4997240;28;21886;-64
2022/10/03 11:25:43;;;;;;;1.75;0.88;;;16.60;99.90;;;;;;4960774;28;20742;-63
2022/10/03 11:29:01;;;;;;;3.65;1.10;;;16.50;99.90;;;;;;5031885;28;20236;-65
2022/10/03 11:32:08;;;;;;;3.28;1.42;;;16.80;99.90;;;;;;5019047;28;20228;-66
2022/10/03 11:35:23;;;;;;;3.95;1.00;;;16.80;99.90;;;;;;5030447;28;20279;-64
2022/10/03 11:37:55;;;;;;;7.35;1.17;;;15.60;99.90;;;;;;4991359;28;20213;-64
2022/10/03 11:40:36;;;;;;;4.57;1.02;;;16.40;99.90;;;;;;5033425;28;20741;-63
2022/10/03 11:43:50;;;;;;;2.50;0.88;;;16.30;99.90;;;;;;5008002;28;20213;-64
2022/10/03 11:46:31;;;;;;;2.20;1.00;;;16.30;99.90;;;;;;5013489;28;21135;-64
2022/10/03 11:49:05;;;;;;;6.68;1.05;;;16.10;99.90;;;;;;5026939;28;20610;-64
2022/10/03 11:51:45;;;;;;;3.25;1.02;;;16.70;99.90;;;;;;5010851;28;20229;-64
2022/10/03 11:54:24;;;;;;;3.03;0.88;;;16.70;99.90;;;;;;4995743;28;20227;-67
2022/10/03 11:56:56;;;;;;;3.53;0.98;;;16.30;99.90;;;;;;5008048;28;20828;-64
2022/10/03 11:59:36;;;;;;;4.78;0.98;;;16.60;99.90;;;;;;5005896;28;21056;-64
2022/10/03 12:02:34;;;;;;;2.97;0.95;;;16.60;99.90;;;;;;5025948;28;20246;-62
2022/10/03 12:05:11;;;;;;;4.07;1.00;;;16.50;99.90;;;;;;4992786;28;20330;-64
2022/10/03 12:10:50;;;;;;;5.75;1.27;;;16.50;99.90;;;;;;4997798;28;20286;-63
2022/10/03 12:13:22;;;;;;;10.10;1.35;;;15.10;99.90;;;;;;5032159;28;20217;-64
2022/10/03 12:15:53;;;;;;;2.28;1.08;;;16.50;99.90;;;;;;5024914;28;20298;-62
2022/10/03 12:18:32;;;;;;;1.67;0.80;;;16.60;99.90;;;;;;5012017;28;20224;-64
2022/10/03 12:21:07;;;;;;;6.65;1.23;;;16.70;99.90;;;;;;5022101;28;20232;-64
2022/10/03 12:23:57;;;;;;;3.88;1.25;;;16.60;99.90;;;;;;5005394;28;20581;-64
2022/10/03 12:26:33;;;;;;;3.08;1.00;;;16.50;99.90;;;;;;4993507;28;21216;-64
2022/10/03 12:29:02;;;;;;;4.25;1.13;;;16.90;99.90;;;;;;5005437;28;20235;-65
2022/10/03 12:31:34;;;;;;;8.05;1.30;;;16.90;99.90;;;;;;5030641;28;20772;-64
2022/10/03 12:34:15;;;;;;;6.10;1.33;;;17.00;99.90;;;;;;5020368;28;20229;-64
2022/10/03 12:36:53;;;;;;;2.55;0.77;;;16.80;99.90;;;;;;5015909;28;20215;-64
2022/10/03 12:39:35;;;;;;;2.85;1.23;;;16.90;99.90;;;;;;5021057;28;20208;-64
2022/10/03 12:42:21;;;;;;;5.88;1.50;;;16.80;99.90;;;;;;4999709;28;20216;-64
2022/10/03 12:44:55;;;;;;;4.05;1.30;;;16.90;99.90;;;;;;5034087;28;20224;-64
2022/10/03 12:47:32;;;;;;;4.43;1.33;;;17.00;99.90;;;;;;5019870;28;20204;-64
2022/10/03 12:50:11;;;;;;;3.67;1.15;;;16.90;99.90;;;;;;5022493;28;20227;-63
2022/10/03 12:52:45;;;;;;;7.28;1.35;;;17.10;99.90;;;;;;5030999;28;20224;-64
2022/10/03 12:55:27;;;;;;;3.80;1.38;;;14.60;99.90;;;;;;4987550;28;22181;-64
2022/10/03 12:58:06;;;;;;;2.53;1.25;;;17.80;99.90;;;;;;5008000;28;20607;-64
2022/10/03 13:00:41;;;;;;;2.17;0.95;;;16.90;99.90;;;;;;5016606;28;24020;-63
2022/10/03 13:03:24;;;;;;;6.18;1.33;;;16.80;99.90;;;;;;5012184;28;20224;-64
2022/10/03 13:06:26;;;;;;;2.95;1.05;;;16.70;99.90;;;;;;5041827;28;20201;-64
2022/10/03 13:09:16;;;;;;;3.80;1.02;;;16.70;99.90;;;;;;5014450;28;20205;-64
2022/10/03 13:12:00;;;;;;;2.25;1.10;;;16.60;99.90;;;;;;5011724;28;20732;-63
2022/10/03 13:14:38;;;;;;;5.10;1.10;;;16.60;99.90;;;;;;4996126;28;20760;-64
2022/10/03 13:17:18;;;;;;;4.57;1.25;;;16.50;99.90;;;;;;5019349;28;20210;-64
2022/10/03 13:19:53;;;;;;;5.10;1.40;;;16.50;99.90;;;;;;5026025;28;20227;-63
2022/10/03 13:22:38;;;;;;;5.55;1.30;;;16.50;99.90;;;;;;5025472;28;20220;-63
2022/10/03 13:25:14;;;;;;;6.50;1.20;;;16.50;99.90;;;;;;5009323;28;20225;-63
2022/10/03 13:27:50;;;;;;;5.10;1.17;;;16.60;99.90;;;;;;4989074;23;20820;-63
2022/10/03 13:30:23;;;;;;;2.55;0.63;;;16.70;99.90;;;;;;4993091;28;20225;-64
2022/10/03 13:32:52;;;;;;;7.63;1.23;;;;;;;;;;4990902;28;20518;-64
2022/10/03 13:38:35;;;;;;;6.10;1.40;;;16.40;99.90;;;;;;5010328;28;20271;-63
2022/10/03 13:41:15;;;;;;;5.55;1.70;;;16.60;99.90;;;;;;4982859;28;20651;-64
2022/10/03 13:43:49;;;;;;;6.63;1.38;;;16.80;99.90;;;;;;4982667;28;20642;-64
2022/10/03 13:46:22;;;;;;;4.85;1.08;;;16.80;99.90;;;;;;4996763;28;20858;-63
2022/10/03 13:48:53;;;;;;;4.65;1.10;;;;;;;;;;5008190;28;21057;-64
2022/10/03 13:51:28;;;;;;;4.82;1.27;;;16.90;99.90;;;;;;5022442;28;20473;-63
2022/10/03 13:54:01;;;;;;;5.03;0.77;;;16.70;99.90;;;;;;5009324;28;20208;-64
2022/10/03 13:56:43;;;;;;;11.60;1.50;;;16.70;99.90;;;;;;5002683;28;20213;-64
2022/10/03 13:59:40;;;;;;;8.80;1.05;;;18.40;99.90;;;;;;4979504;28;20210;-63
2022/10/03 14:02:21;;;;;;;4.90;1.42;;;16.50;99.90;;;;;;5007088;28;21424;-63
2022/10/03 14:05:01;;;;;;;5.85;1.17;;;16.50;99.90;;;;;;5007655;28;20201;-63
2022/10/03 14:07:42;;;;;;;3.33;1.02;;;16.50;99.90;;;;;;5014693;28;20197;-64
2022/10/03 14:10:20;;;;;;;11.00;1.75;;;16.30;99.90;;;;;;5003696;28;20197;-64
2022/10/03 14:13:03;;;;;;;9.18;1.70;;;15.80;99.90;;;;;;4993482;28;20213;-63
2022/10/03 14:15:43;;;;;;;5.22;1.17;;;16.40;99.90;;;;;;5009089;28;20206;-64
2022/10/03 14:18:24;;;;;;;12.45;1.50;;;15.90;99.90;;;;;;5006879;28;20212;-63
2022/10/03 14:21:17;;;;;;;4.60;1.15;;;16.40;99.90;;;;;;5000804;28;20217;-63
2022/10/03 14:23:51;;;;;;;4.13;1.17;;;16.40;99.90;;;;;;5028255;28;20217;-63
2022/10/03 14:26:25;;;;;;;2.50;1.00;;;16.50;99.90;;;;;;5009858;28;20213;-63
2022/10/03 14:28:57;;;;;;;4.88;1.02;;;16.50;99.90;;;;;;5004843;28;20227;-64
2022/10/03 14:31:35;;;;;;;7.68;1.20;;;16.70;99.90;;;;;;5011034;28;20847;-64
2022/10/03 14:34:08;;;;;;;5.47;1.25;;;16.50;99.90;;;;;;5042764;28;20196;-63
2022/10/03 14:36:43;;;;;;;2.92;1.00;;;16.50;99.90;;;;;;5016434;28;20375;-63
2022/10/03 14:39:31;;;;;;;5.57;0.90;;;16.40;99.90;;;;;;5024978;28;20205;-63
2022/10/03 14:42:32;;;;;;;5.38;1.15;;;16.40;99.90;;;;;;5017194;28;20213;-62
2022/10/03 14:45:01;;;;;;;5.70;1.80;;;16.30;99.90;;;;;;5004482;28;22077;-62
2022/10/03 14:47:36;;;;;;;4.13;1.27;;;16.30;99.90;;;;;;5014065;28;20371;-63
2022/10/03 14:50:05;;;;;;;10.38;1.55;;;16.30;99.90;;;;;;5043366;28;20194;-63
2022/10/03 14:52:39;;;;;;;4.13;0.80;;;16.30;99.90;;;;;;5021490;28;20915;-62
2022/10/03 14:55:14;;;;;;;3.83;1.20;;;15.60;99.90;;;;;;5043835;28;20306;-63